sensor_id;sensor_type;location;lat;lon;timestamp;P1;durP1;ratioP1;P2;durP2;ratioP2
36253;SDS011;22291;52.250;21.228;2023-05-29T00:00:22;18.60;;;9.28;;
36253;SDS011;22291;52.250;21.228;2023-05-29T00:02:51;21.87;;;10.20;;
36253;SDS011;22291;52.250;21.228;2023-05-29T00:05:18;18.02;;;9.25;;
36253;SDS011;22291;52.250;21.228;2023-05-29T00:07:44;21.65;;;9.05;;
36253;SDS011;22291;52.250;21.228;2023-05-29T00:10:11;19.48;;;9.10;;
36253;SDS011;22291;52.250;21.228;2023-05-29T00:12:38;22.25;;;10.08;;
36253;SDS011;22291;52.250;21.228;2023-05-29T00:15:06;53.08;;;10.63;;
36253;SDS011;22291;52.250;21.228;2023-05-29T00:17:36;32.70;;;10.30;;
36253;SDS011;22291;52.250;21.228;2023-05-29T00:20:04;31.27;;;10.28;;
36253;SDS011;22291;52.250;21.228;2023-05-29T00:22:34;19.17;;;9.23;;
36253;SDS011;22291;52.250;21.228;2023-05-29T00:25:06;20.70;;;9.85;;
36253;SDS011;22291;52.250;21.228;2023-05-29T00:27:34;23.35;;;9.88;;
36253;SDS011;22291;52.250;21.228;2023-05-29T00:30:02;21.95;;;9.85;;
36253;SDS011;22291;52.250;21.228;2023-05-29T00:34:57;18.90;;;9.40;;
36253;SDS011;22291;52.250;21.228;2023-05-29T00:37:23;18.02;;;8.55;;
36253;SDS011;22291;52.250;21.228;2023-05-29T00:39:50;13.80;;;8.50;;
36253;SDS011;22291;52.250;21.228;2023-05-29T00:42:17;16.45;;;9.58;;
36253;SDS011;22291;52.250;21.228;2023-05-29T00:44:43;16.50;;;8.38;;
36253;SDS011;22291;52.250;21.228;2023-05-29T00:47:10;20.35;;;10.00;;
36253;SDS011;22291;52.250;21.228;2023-05-29T00:49:36;21.93;;;10.08;;
36253;SDS011;22291;52.250;21.228;2023-05-29T00:52:04;19.92;;;9.30;;
36253;SDS011;22291;52.250;21.228;2023-05-29T00:54:33;20.75;;;8.60;;
36253;SDS011;22291;52.250;21.228;2023-05-29T00:57:01;22.75;;;9.28;;
36253;SDS011;22291;52.250;21.228;2023-05-29T00:59:30;19.55;;;9.25;;
36253;SDS011;22291;52.250;21.228;2023-05-29T01:01:59;17.82;;;8.90;;
36253;SDS011;22291;52.250;21.228;2023-05-29T01:04:29;16.25;;;8.60;;
36253;SDS011;22291;52.250;21.228;2023-05-29T01:06:57;18.25;;;8.60;;
36253;SDS011;22291;52.250;21.228;2023-05-29T01:09:23;16.25;;;8.38;;
36253;SDS011;22291;52.250;21.228;2023-05-29T01:17:32;16.30;;;9.05;;
36253;SDS011;22291;52.250;21.228;2023-05-29T01:28:44;18.95;;;9.43;;
36253;SDS011;22291;52.250;21.228;2023-05-29T01:31:26;21.05;;;9.45;;
36253;SDS011;22291;52.250;21.228;2023-05-29T01:33:51;24.90;;;9.08;;
36253;SDS011;22291;52.250;21.228;2023-05-29T01:36:21;18.70;;;9.90;;
36253;SDS011;22291;52.250;21.228;2023-05-29T01:38:49;19.37;;;9.95;;
36253;SDS011;22291;52.250;21.228;2023-05-29T01:41:19;19.67;;;9.00;;
36253;SDS011;22291;52.250;21.228;2023-05-29T01:43:48;18.67;;;9.30;;
36253;SDS011;22291;52.250;21.228;2023-05-29T01:46:16;16.30;;;9.03;;
36253;SDS011;22291;52.250;21.228;2023-05-29T01:48:45;17.10;;;8.98;;
36253;SDS011;22291;52.250;21.228;2023-05-29T01:51:12;16.80;;;9.15;;
36253;SDS011;22291;52.250;21.228;2023-05-29T01:53:39;18.27;;;8.65;;
36253;SDS011;22291;52.250;21.228;2023-05-29T01:56:07;18.10;;;9.05;;
36253;SDS011;22291;52.250;21.228;2023-05-29T01:58:35;20.32;;;8.90;;
36253;SDS011;22291;52.250;21.228;2023-05-29T02:01:05;19.95;;;8.48;;
36253;SDS011;22291;52.250;21.228;2023-05-29T02:03:33;16.17;;;9.03;;
36253;SDS011;22291;52.250;21.228;2023-05-29T02:06:00;18.48;;;9.95;;
36253;SDS011;22291;52.250;21.228;2023-05-29T02:08:27;19.77;;;9.00;;
36253;SDS011;22291;52.250;21.228;2023-05-29T02:10:54;23.25;;;9.58;;
36253;SDS011;22291;52.250;21.228;2023-05-29T02:13:21;20.57;;;9.13;;
36253;SDS011;22291;52.250;21.228;2023-05-29T02:15:47;26.55;;;9.50;;
36253;SDS011;22291;52.250;21.228;2023-05-29T02:18:14;18.25;;;8.88;;
36253;SDS011;22291;52.250;21.228;2023-05-29T02:20:43;20.45;;;9.05;;
36253;SDS011;22291;52.250;21.228;2023-05-29T02:23:09;18.87;;;8.85;;
36253;SDS011;22291;52.250;21.228;2023-05-29T02:25:35;22.25;;;9.83;;
36253;SDS011;22291;52.250;21.228;2023-05-29T02:28:03;18.98;;;8.73;;
36253;SDS011;22291;52.250;21.228;2023-05-29T02:30:30;21.82;;;9.45;;
36253;SDS011;22291;52.250;21.228;2023-05-29T02:32:56;16.20;;;8.70;;
36253;SDS011;22291;52.250;21.228;2023-05-29T02:35:23;15.72;;;8.48;;
36253;SDS011;22291;52.250;21.228;2023-05-29T02:37:49;19.67;;;9.08;;
36253;SDS011;22291;52.250;21.228;2023-05-29T02:40:17;17.62;;;10.18;;
36253;SDS011;22291;52.250;21.228;2023-05-29T02:42:45;23.90;;;9.90;;
36253;SDS011;22291;52.250;21.228;2023-05-29T02:45:13;24.40;;;10.00;;
36253;SDS011;22291;52.250;21.228;2023-05-29T02:47:39;18.45;;;8.33;;
36253;SDS011;22291;52.250;21.228;2023-05-29T02:50:05;22.05;;;9.43;;
36253;SDS011;22291;52.250;21.228;2023-05-29T02:52:34;18.95;;;9.43;;
36253;SDS011;22291;52.250;21.228;2023-05-29T02:55:06;16.73;;;9.00;;
36253;SDS011;22291;52.250;21.228;2023-05-29T02:57:33;20.02;;;8.93;;
36253;SDS011;22291;52.250;21.228;2023-05-29T03:00:00;19.48;;;8.80;;
36253;SDS011;22291;52.250;21.228;2023-05-29T03:02:29;16.48;;;8.70;;
36253;SDS011;22291;52.250;21.228;2023-05-29T03:04:55;15.00;;;8.63;;
36253;SDS011;22291;52.250;21.228;2023-05-29T03:07:21;20.10;;;8.65;;
36253;SDS011;22291;52.250;21.228;2023-05-29T03:09:47;16.82;;;9.43;;
36253;SDS011;22291;52.250;21.228;2023-05-29T03:12:14;19.37;;;8.85;;
36253;SDS011;22291;52.250;21.228;2023-05-29T03:14:40;19.52;;;9.68;;
36253;SDS011;22291;52.250;21.228;2023-05-29T03:17:06;21.30;;;9.20;;
36253;SDS011;22291;52.250;21.228;2023-05-29T03:19:33;16.35;;;8.85;;
36253;SDS011;22291;52.250;21.228;2023-05-29T03:22:00;17.00;;;9.15;;
36253;SDS011;22291;52.250;21.228;2023-05-29T03:24:26;21.45;;;8.80;;
36253;SDS011;22291;52.250;21.228;2023-05-29T03:26:52;19.10;;;8.80;;
36253;SDS011;22291;52.250;21.228;2023-05-29T03:29:19;13.88;;;8.80;;
36253;SDS011;22291;52.250;21.228;2023-05-29T03:31:45;21.77;;;8.70;;
36253;SDS011;22291;52.250;21.228;2023-05-29T03:34:12;17.45;;;9.63;;
36253;SDS011;22291;52.250;21.228;2023-05-29T03:36:39;20.05;;;8.78;;
36253;SDS011;22291;52.250;21.228;2023-05-29T03:39:05;19.98;;;9.18;;
36253;SDS011;22291;52.250;21.228;2023-05-29T03:41:32;19.50;;;8.90;;
36253;SDS011;22291;52.250;21.228;2023-05-29T03:43:58;19.95;;;9.55;;
36253;SDS011;22291;52.250;21.228;2023-05-29T03:46:24;18.87;;;8.70;;
36253;SDS011;22291;52.250;21.228;2023-05-29T03:48:53;24.65;;;10.00;;
36253;SDS011;22291;52.250;21.228;2023-05-29T03:51:19;22.25;;;8.50;;
36253;SDS011;22291;52.250;21.228;2023-05-29T03:53:46;26.60;;;9.18;;
36253;SDS011;22291;52.250;21.228;2023-05-29T03:56:12;25.92;;;8.98;;
36253;SDS011;22291;52.250;21.228;2023-05-29T03:58:38;27.15;;;9.20;;
36253;SDS011;22291;52.250;21.228;2023-05-29T04:01:04;24.32;;;8.70;;
36253;SDS011;22291;52.250;21.228;2023-05-29T04:03:31;23.75;;;8.63;;
36253;SDS011;22291;52.250;21.228;2023-05-29T04:05:58;19.23;;;8.88;;
36253;SDS011;22291;52.250;21.228;2023-05-29T04:08:24;12.95;;;8.05;;
36253;SDS011;22291;52.250;21.228;2023-05-29T04:10:51;20.95;;;8.78;;
36253;SDS011;22291;52.250;21.228;2023-05-29T04:13:20;16.55;;;8.25;;
36253;SDS011;22291;52.250;21.228;2023-05-29T04:15:47;20.23;;;9.15;;
36253;SDS011;22291;52.250;21.228;2023-05-29T04:18:13;17.30;;;7.45;;
36253;SDS011;22291;52.250;21.228;2023-05-29T04:20:39;18.62;;;8.20;;
36253;SDS011;22291;52.250;21.228;2023-05-29T04:23:06;20.55;;;8.88;;
36253;SDS011;22291;52.250;21.228;2023-05-29T04:25:32;13.90;;;7.28;;
36253;SDS011;22291;52.250;21.228;2023-05-29T04:28:00;16.90;;;8.13;;
36253;SDS011;22291;52.250;21.228;2023-05-29T04:30:28;18.95;;;7.35;;
36253;SDS011;22291;52.250;21.228;2023-05-29T04:32:54;16.10;;;8.15;;
36253;SDS011;22291;52.250;21.228;2023-05-29T04:35:20;16.97;;;7.92;;
36253;SDS011;22291;52.250;21.228;2023-05-29T04:37:47;16.55;;;7.90;;
36253;SDS011;22291;52.250;21.228;2023-05-29T04:40:13;16.82;;;7.40;;
36253;SDS011;22291;52.250;21.228;2023-05-29T04:42:42;13.80;;;7.70;;
36253;SDS011;22291;52.250;21.228;2023-05-29T04:45:12;15.88;;;7.28;;
36253;SDS011;22291;52.250;21.228;2023-05-29T04:47:39;19.57;;;7.58;;
36253;SDS011;22291;52.250;21.228;2023-05-29T04:50:12;17.25;;;7.55;;
36253;SDS011;22291;52.250;21.228;2023-05-29T04:52:40;38.92;;;7.97;;
36253;SDS011;22291;52.250;21.228;2023-05-29T04:55:08;17.42;;;7.15;;
36253;SDS011;22291;52.250;21.228;2023-05-29T04:57:36;12.23;;;6.12;;
36253;SDS011;22291;52.250;21.228;2023-05-29T05:00:03;12.45;;;7.20;;
36253;SDS011;22291;52.250;21.228;2023-05-29T05:02:33;15.53;;;6.97;;
36253;SDS011;22291;52.250;21.228;2023-05-29T05:04:59;14.07;;;6.25;;
36253;SDS011;22291;52.250;21.228;2023-05-29T05:07:25;18.42;;;6.20;;
36253;SDS011;22291;52.250;21.228;2023-05-29T05:09:51;21.17;;;6.42;;
36253;SDS011;22291;52.250;21.228;2023-05-29T05:12:18;14.10;;;5.92;;
36253;SDS011;22291;52.250;21.228;2023-05-29T05:14:44;12.25;;;6.10;;
36253;SDS011;22291;52.250;21.228;2023-05-29T05:17:10;16.02;;;6.40;;
36253;SDS011;22291;52.250;21.228;2023-05-29T05:19:36;15.85;;;5.72;;
36253;SDS011;22291;52.250;21.228;2023-05-29T05:22:02;13.93;;;5.05;;
36253;SDS011;22291;52.250;21.228;2023-05-29T05:24:29;11.03;;;5.22;;
36253;SDS011;22291;52.250;21.228;2023-05-29T05:26:57;12.37;;;5.08;;
36253;SDS011;22291;52.250;21.228;2023-05-29T05:29:23;13.18;;;4.62;;
36253;SDS011;22291;52.250;21.228;2023-05-29T05:31:50;8.88;;;4.58;;
36253;SDS011;22291;52.250;21.228;2023-05-29T05:34:16;9.48;;;4.50;;
36253;SDS011;22291;52.250;21.228;2023-05-29T05:36:42;12.58;;;5.05;;
36253;SDS011;22291;52.250;21.228;2023-05-29T05:39:09;16.20;;;4.90;;
36253;SDS011;22291;52.250;21.228;2023-05-29T05:41:35;8.93;;;4.35;;
36253;SDS011;22291;52.250;21.228;2023-05-29T05:44:01;9.95;;;3.98;;
36253;SDS011;22291;52.250;21.228;2023-05-29T05:46:27;12.40;;;6.45;;
36253;SDS011;22291;52.250;21.228;2023-05-29T05:48:54;8.83;;;5.00;;
36253;SDS011;22291;52.250;21.228;2023-05-29T05:51:24;11.88;;;3.47;;
36253;SDS011;22291;52.250;21.228;2023-05-29T05:53:52;8.40;;;2.95;;
36253;SDS011;22291;52.250;21.228;2023-05-29T05:56:19;9.03;;;3.25;;
36253;SDS011;22291;52.250;21.228;2023-05-29T05:58:46;8.18;;;3.05;;
36253;SDS011;22291;52.250;21.228;2023-05-29T06:01:12;6.97;;;3.45;;
36253;SDS011;22291;52.250;21.228;2023-05-29T06:03:38;6.15;;;3.90;;
36253;SDS011;22291;52.250;21.228;2023-05-29T06:06:05;4.78;;;3.20;;
36253;SDS011;22291;52.250;21.228;2023-05-29T06:08:34;10.43;;;4.10;;
36253;SDS011;22291;52.250;21.228;2023-05-29T06:11:01;11.75;;;3.90;;
36253;SDS011;22291;52.250;21.228;2023-05-29T06:13:27;10.60;;;3.85;;
36253;SDS011;22291;52.250;21.228;2023-05-29T06:15:53;10.03;;;3.50;;
36253;SDS011;22291;52.250;21.228;2023-05-29T06:18:20;12.60;;;4.30;;
36253;SDS011;22291;52.250;21.228;2023-05-29T06:20:46;6.45;;;3.77;;
36253;SDS011;22291;52.250;21.228;2023-05-29T06:23:13;11.03;;;3.00;;
36253;SDS011;22291;52.250;21.228;2023-05-29T06:25:39;8.53;;;2.92;;
36253;SDS011;22291;52.250;21.228;2023-05-29T06:28:05;13.30;;;3.22;;
36253;SDS011;22291;52.250;21.228;2023-05-29T06:30:31;10.15;;;2.72;;
36253;SDS011;22291;52.250;21.228;2023-05-29T06:32:57;6.17;;;2.47;;
36253;SDS011;22291;52.250;21.228;2023-05-29T06:35:24;9.28;;;2.37;;
36253;SDS011;22291;52.250;21.228;2023-05-29T06:37:50;11.28;;;3.92;;
36253;SDS011;22291;52.250;21.228;2023-05-29T06:40:16;8.33;;;2.80;;
36253;SDS011;22291;52.250;21.228;2023-05-29T06:42:43;4.50;;;2.37;;
36253;SDS011;22291;52.250;21.228;2023-05-29T06:45:11;7.08;;;2.70;;
36253;SDS011;22291;52.250;21.228;2023-05-29T06:47:39;5.17;;;1.87;;
36253;SDS011;22291;52.250;21.228;2023-05-29T06:52:36;4.50;;;1.80;;
36253;SDS011;22291;52.250;21.228;2023-05-29T06:55:05;13.25;;;1.85;;
36253;SDS011;22291;52.250;21.228;2023-05-29T06:57:32;4.28;;;1.67;;
36253;SDS011;22291;52.250;21.228;2023-05-29T06:59:59;6.40;;;1.65;;
36253;SDS011;22291;52.250;21.228;2023-05-29T07:02:25;7.42;;;2.10;;
36253;SDS011;22291;52.250;21.228;2023-05-29T07:04:52;3.27;;;1.30;;
36253;SDS011;22291;52.250;21.228;2023-05-29T07:07:19;4.20;;;1.55;;
36253;SDS011;22291;52.250;21.228;2023-05-29T07:09:45;5.58;;;1.60;;
36253;SDS011;22291;52.250;21.228;2023-05-29T07:12:11;8.38;;;1.77;;
36253;SDS011;22291;52.250;21.228;2023-05-29T07:14:37;4.97;;;1.70;;
36253;SDS011;22291;52.250;21.228;2023-05-29T07:17:05;6.70;;;1.65;;
36253;SDS011;22291;52.250;21.228;2023-05-29T07:19:31;5.15;;;1.72;;
36253;SDS011;22291;52.250;21.228;2023-05-29T07:21:59;4.50;;;1.72;;
36253;SDS011;22291;52.250;21.228;2023-05-29T07:24:25;4.83;;;2.02;;
36253;SDS011;22291;52.250;21.228;2023-05-29T07:26:53;3.65;;;1.80;;
36253;SDS011;22291;52.250;21.228;2023-05-29T07:29:21;3.60;;;1.77;;
36253;SDS011;22291;52.250;21.228;2023-05-29T07:31:50;5.28;;;1.67;;
36253;SDS011;22291;52.250;21.228;2023-05-29T07:34:18;6.78;;;1.60;;
36253;SDS011;22291;52.250;21.228;2023-05-29T07:36:57;7.70;;;1.40;;
36253;SDS011;22291;52.250;21.228;2023-05-29T07:39:30;16.35;;;1.77;;
36253;SDS011;22291;52.250;21.228;2023-05-29T07:41:59;3.50;;;1.87;;
36253;SDS011;22291;52.250;21.228;2023-05-29T13:52:46;5.65;;;2.83;;
36253;SDS011;22291;52.250;21.228;2023-05-29T13:55:12;9.85;;;2.77;;
36253;SDS011;22291;52.250;21.228;2023-05-29T13:57:39;4.75;;;2.60;;
36253;SDS011;22291;52.250;21.228;2023-05-29T14:00:07;4.53;;;2.10;;
36253;SDS011;22291;52.250;21.228;2023-05-29T14:02:36;8.08;;;3.02;;
36253;SDS011;22291;52.250;21.228;2023-05-29T14:05:04;11.33;;;2.33;;
36253;SDS011;22291;52.250;21.228;2023-05-29T14:07:32;7.03;;;2.55;;
36253;SDS011;22291;52.250;21.228;2023-05-29T14:09:58;7.12;;;2.67;;
36253;SDS011;22291;52.250;21.228;2023-05-29T14:12:25;9.90;;;2.22;;
36253;SDS011;22291;52.250;21.228;2023-05-29T14:14:51;6.30;;;2.70;;
36253;SDS011;22291;52.250;21.228;2023-05-29T14:17:17;6.78;;;2.55;;
36253;SDS011;22291;52.250;21.228;2023-05-29T14:19:44;3.02;;;1.98;;
36253;SDS011;22291;52.250;21.228;2023-05-29T14:22:13;6.33;;;2.40;;
36253;SDS011;22291;52.250;21.228;2023-05-29T14:24:40;6.35;;;2.30;;
36253;SDS011;22291;52.250;21.228;2023-05-29T14:27:06;4.83;;;2.30;;
36253;SDS011;22291;52.250;21.228;2023-05-29T14:29:32;4.85;;;2.40;;
36253;SDS011;22291;52.250;21.228;2023-05-29T14:31:58;5.90;;;2.22;;
36253;SDS011;22291;52.250;21.228;2023-05-29T14:34:25;3.80;;;2.35;;
36253;SDS011;22291;52.250;21.228;2023-05-29T14:36:51;5.50;;;2.40;;
36253;SDS011;22291;52.250;21.228;2023-05-29T14:39:17;7.62;;;2.55;;
36253;SDS011;22291;52.250;21.228;2023-05-29T14:41:43;12.98;;;9.23;;
36253;SDS011;22291;52.250;21.228;2023-05-29T14:44:10;9.25;;;7.37;;
36253;SDS011;22291;52.250;21.228;2023-05-29T14:46:38;3.27;;;2.40;;
36253;SDS011;22291;52.250;21.228;2023-05-29T14:49:04;5.78;;;4.05;;
36253;SDS011;22291;52.250;21.228;2023-05-29T14:51:31;16.87;;;11.60;;
36253;SDS011;22291;52.250;21.228;2023-05-29T14:53:59;9.85;;;2.75;;
36253;SDS011;22291;52.250;21.228;2023-05-29T14:56:25;4.15;;;2.22;;
36253;SDS011;22291;52.250;21.228;2023-05-29T14:58:53;7.05;;;2.20;;
36253;SDS011;22291;52.250;21.228;2023-05-29T15:01:19;9.00;;;2.65;;
36253;SDS011;22291;52.250;21.228;2023-05-29T15:03:46;11.78;;;2.27;;
36253;SDS011;22291;52.250;21.228;2023-05-29T15:06:12;3.45;;;1.80;;
36253;SDS011;22291;52.250;21.228;2023-05-29T15:08:39;9.55;;;2.50;;
36253;SDS011;22291;52.250;21.228;2023-05-29T15:11:08;9.23;;;2.37;;
36253;SDS011;22291;52.250;21.228;2023-05-29T15:13:37;7.08;;;2.42;;
36253;SDS011;22291;52.250;21.228;2023-05-29T15:16:05;4.30;;;2.27;;
36253;SDS011;22291;52.250;21.228;2023-05-29T15:18:32;4.50;;;2.27;;
36253;SDS011;22291;52.250;21.228;2023-05-29T15:21:00;7.35;;;2.90;;
36253;SDS011;22291;52.250;21.228;2023-05-29T15:23:26;7.92;;;2.25;;
36253;SDS011;22291;52.250;21.228;2023-05-29T15:25:53;3.52;;;2.08;;
36253;SDS011;22291;52.250;21.228;2023-05-29T15:28:19;5.08;;;2.50;;
36253;SDS011;22291;52.250;21.228;2023-05-29T15:30:46;2.72;;;2.12;;
36253;SDS011;22291;52.250;21.228;2023-05-29T15:33:13;5.12;;;2.05;;
36253;SDS011;22291;52.250;21.228;2023-05-29T15:35:40;6.95;;;2.27;;
36253;SDS011;22291;52.250;21.228;2023-05-29T15:38:08;4.87;;;2.65;;
36253;SDS011;22291;52.250;21.228;2023-05-29T15:40:38;3.12;;;2.27;;
36253;SDS011;22291;52.250;21.228;2023-05-29T15:43:06;6.40;;;2.30;;
36253;SDS011;22291;52.250;21.228;2023-05-29T15:45:35;7.78;;;2.30;;
36253;SDS011;22291;52.250;21.228;2023-05-29T15:48:04;3.72;;;2.50;;
36253;SDS011;22291;52.250;21.228;2023-05-29T15:50:33;5.55;;;2.27;;
36253;SDS011;22291;52.250;21.228;2023-05-29T15:52:59;5.92;;;2.47;;
36253;SDS011;22291;52.250;21.228;2023-05-29T15:55:26;3.80;;;2.25;;
36253;SDS011;22291;52.250;21.228;2023-05-29T15:57:53;3.92;;;2.60;;
36253;SDS011;22291;52.250;21.228;2023-05-29T16:00:19;5.95;;;3.00;;
36253;SDS011;22291;52.250;21.228;2023-05-29T16:02:46;8.30;;;4.92;;
36253;SDS011;22291;52.250;21.228;2023-05-29T16:05:13;9.75;;;3.42;;
36253;SDS011;22291;52.250;21.228;2023-05-29T16:07:39;4.87;;;2.70;;
36253;SDS011;22291;52.250;21.228;2023-05-29T16:10:08;6.12;;;2.60;;
36253;SDS011;22291;52.250;21.228;2023-05-29T16:12:36;9.45;;;2.30;;
36253;SDS011;22291;52.250;21.228;2023-05-29T16:15:02;4.80;;;2.65;;
36253;SDS011;22291;52.250;21.228;2023-05-29T16:17:30;4.80;;;2.40;;
36253;SDS011;22291;52.250;21.228;2023-05-29T16:19:57;6.28;;;2.80;;
36253;SDS011;22291;52.250;21.228;2023-05-29T16:22:24;7.65;;;2.05;;
36253;SDS011;22291;52.250;21.228;2023-05-29T16:24:51;6.28;;;3.00;;
36253;SDS011;22291;52.250;21.228;2023-05-29T16:27:18;10.43;;;5.55;;
36253;SDS011;22291;52.250;21.228;2023-05-29T16:29:45;6.97;;;3.75;;
36253;SDS011;22291;52.250;21.228;2023-05-29T16:32:11;5.35;;;2.20;;
36253;SDS011;22291;52.250;21.228;2023-05-29T16:34:38;4.25;;;2.50;;
36253;SDS011;22291;52.250;21.228;2023-05-29T16:37:06;4.80;;;2.27;;
36253;SDS011;22291;52.250;21.228;2023-05-29T16:39:35;5.08;;;2.67;;
36253;SDS011;22291;52.250;21.228;2023-05-29T16:42:03;5.53;;;2.52;;
36253;SDS011;22291;52.250;21.228;2023-05-29T16:44:31;5.62;;;2.40;;
36253;SDS011;22291;52.250;21.228;2023-05-29T16:46:58;6.80;;;2.85;;
36253;SDS011;22291;52.250;21.228;2023-05-29T16:49:26;5.33;;;2.60;;
36253;SDS011;22291;52.250;21.228;2023-05-29T16:51:52;7.22;;;3.10;;
36253;SDS011;22291;52.250;21.228;2023-05-29T16:54:20;9.60;;;3.75;;
36253;SDS011;22291;52.250;21.228;2023-05-29T16:56:46;7.30;;;2.70;;
36253;SDS011;22291;52.250;21.228;2023-05-29T16:59:12;6.78;;;2.33;;
36253;SDS011;22291;52.250;21.228;2023-05-29T17:01:40;9.25;;;2.75;;
36253;SDS011;22291;52.250;21.228;2023-05-29T17:04:06;4.87;;;2.90;;
36253;SDS011;22291;52.250;21.228;2023-05-29T17:06:34;6.20;;;2.98;;
36253;SDS011;22291;52.250;21.228;2023-05-29T17:09:02;5.78;;;2.60;;
36253;SDS011;22291;52.250;21.228;2023-05-29T17:11:30;3.95;;;2.40;;
36253;SDS011;22291;52.250;21.228;2023-05-29T17:13:56;4.62;;;2.45;;
36253;SDS011;22291;52.250;21.228;2023-05-29T17:16:24;3.22;;;2.22;;
36253;SDS011;22291;52.250;21.228;2023-05-29T17:18:50;7.92;;;2.27;;
36253;SDS011;22291;52.250;21.228;2023-05-29T17:21:17;6.33;;;2.62;;
36253;SDS011;22291;52.250;21.228;2023-05-29T17:23:44;11.60;;;2.90;;
36253;SDS011;22291;52.250;21.228;2023-05-29T17:26:11;10.03;;;3.10;;
36253;SDS011;22291;52.250;21.228;2023-05-29T17:28:38;9.45;;;3.05;;
36253;SDS011;22291;52.250;21.228;2023-05-29T17:31:05;19.87;;;3.83;;
36253;SDS011;22291;52.250;21.228;2023-05-29T17:33:31;31.87;;;4.47;;
36253;SDS011;22291;52.250;21.228;2023-05-29T17:35:57;30.80;;;5.33;;
36253;SDS011;22291;52.250;21.228;2023-05-29T17:38:25;39.67;;;12.63;;
36253;SDS011;22291;52.250;21.228;2023-05-29T17:40:51;13.72;;;3.80;;
36253;SDS011;22291;52.250;21.228;2023-05-29T17:43:17;11.53;;;3.10;;
36253;SDS011;22291;52.250;21.228;2023-05-29T17:45:44;11.85;;;3.08;;
36253;SDS011;22291;52.250;21.228;2023-05-29T17:48:12;18.37;;;9.38;;
36253;SDS011;22291;52.250;21.228;2023-05-29T17:50:38;8.73;;;4.28;;
36253;SDS011;22291;52.250;21.228;2023-05-29T17:53:04;12.23;;;3.02;;
36253;SDS011;22291;52.250;21.228;2023-05-29T17:55:30;6.42;;;3.08;;
36253;SDS011;22291;52.250;21.228;2023-05-29T17:57:57;6.10;;;2.65;;
36253;SDS011;22291;52.250;21.228;2023-05-29T18:00:24;16.85;;;3.45;;
36253;SDS011;22291;52.250;21.228;2023-05-29T18:02:51;27.58;;;3.55;;
36253;SDS011;22291;52.250;21.228;2023-05-29T18:05:17;19.82;;;3.60;;
36253;SDS011;22291;52.250;21.228;2023-05-29T18:07:43;22.58;;;3.52;;
36253;SDS011;22291;52.250;21.228;2023-05-29T18:10:10;13.32;;;4.60;;
36253;SDS011;22291;52.250;21.228;2023-05-29T18:12:39;15.45;;;3.47;;
36253;SDS011;22291;52.250;21.228;2023-05-29T18:15:06;16.45;;;4.67;;
36253;SDS011;22291;52.250;21.228;2023-05-29T18:17:34;12.35;;;2.90;;
36253;SDS011;22291;52.250;21.228;2023-05-29T18:20:00;15.78;;;3.42;;
36253;SDS011;22291;52.250;21.228;2023-05-29T18:22:27;18.85;;;4.15;;
36253;SDS011;22291;52.250;21.228;2023-05-29T18:24:53;8.90;;;2.72;;
36253;SDS011;22291;52.250;21.228;2023-05-29T18:27:21;8.93;;;3.47;;
36253;SDS011;22291;52.250;21.228;2023-05-29T18:29:48;7.33;;;2.55;;
36253;SDS011;22291;52.250;21.228;2023-05-29T18:32:19;7.33;;;3.10;;
36253;SDS011;22291;52.250;21.228;2023-05-29T18:34:48;9.70;;;4.62;;
36253;SDS011;22291;52.250;21.228;2023-05-29T18:37:14;9.85;;;3.87;;
36253;SDS011;22291;52.250;21.228;2023-05-29T18:39:42;30.45;;;10.38;;
36253;SDS011;22291;52.250;21.228;2023-05-29T18:42:08;16.35;;;5.72;;
36253;SDS011;22291;52.250;21.228;2023-05-29T18:44:35;12.53;;;4.50;;
36253;SDS011;22291;52.250;21.228;2023-05-29T18:47:03;26.68;;;5.35;;
36253;SDS011;22291;52.250;21.228;2023-05-29T18:49:30;18.85;;;4.97;;
36253;SDS011;22291;52.250;21.228;2023-05-29T18:51:58;12.18;;;3.67;;
36253;SDS011;22291;52.250;21.228;2023-05-29T18:54:24;7.33;;;3.35;;
36253;SDS011;22291;52.250;21.228;2023-05-29T18:56:51;11.15;;;4.42;;
36253;SDS011;22291;52.250;21.228;2023-05-29T18:59:18;7.95;;;3.60;;
36253;SDS011;22291;52.250;21.228;2023-05-29T19:01:46;10.95;;;3.30;;
36253;SDS011;22291;52.250;21.228;2023-05-29T19:04:13;16.30;;;5.37;;
36253;SDS011;22291;52.250;21.228;2023-05-29T19:06:39;24.47;;;12.25;;
36253;SDS011;22291;52.250;21.228;2023-05-29T19:09:06;24.27;;;9.05;;
36253;SDS011;22291;52.250;21.228;2023-05-29T19:11:33;13.95;;;7.50;;
36253;SDS011;22291;52.250;21.228;2023-05-29T19:14:00;20.32;;;6.00;;
36253;SDS011;22291;52.250;21.228;2023-05-29T19:16:28;11.85;;;4.15;;
36253;SDS011;22291;52.250;21.228;2023-05-29T19:18:56;17.75;;;11.43;;
36253;SDS011;22291;52.250;21.228;2023-05-29T19:21:25;15.85;;;10.23;;
36253;SDS011;22291;52.250;21.228;2023-05-29T19:23:51;13.88;;;7.10;;
36253;SDS011;22291;52.250;21.228;2023-05-29T19:26:19;13.90;;;7.78;;
36253;SDS011;22291;52.250;21.228;2023-05-29T19:28:49;9.08;;;3.42;;
36253;SDS011;22291;52.250;21.228;2023-05-29T19:31:17;18.70;;;3.95;;
36253;SDS011;22291;52.250;21.228;2023-05-29T19:33:45;10.18;;;4.08;;
36253;SDS011;22291;52.250;21.228;2023-05-29T19:36:12;14.90;;;4.53;;
36253;SDS011;22291;52.250;21.228;2023-05-29T19:38:40;6.33;;;3.50;;
36253;SDS011;22291;52.250;21.228;2023-05-29T19:41:06;8.78;;;3.72;;
36253;SDS011;22291;52.250;21.228;2023-05-29T19:43:33;8.25;;;3.62;;
36253;SDS011;22291;52.250;21.228;2023-05-29T19:45:59;10.93;;;5.10;;
36253;SDS011;22291;52.250;21.228;2023-05-29T19:48:26;9.20;;;4.95;;
36253;SDS011;22291;52.250;21.228;2023-05-29T19:50:53;8.88;;;3.33;;
36253;SDS011;22291;52.250;21.228;2023-05-29T19:53:20;10.08;;;3.47;;
36253;SDS011;22291;52.250;21.228;2023-05-29T19:55:46;5.85;;;3.62;;
36253;SDS011;22291;52.250;21.228;2023-05-29T19:58:13;5.95;;;3.55;;
36253;SDS011;22291;52.250;21.228;2023-05-29T20:00:43;7.25;;;3.72;;
36253;SDS011;22291;52.250;21.228;2023-05-29T20:03:11;9.75;;;3.70;;
36253;SDS011;22291;52.250;21.228;2023-05-29T20:05:38;10.43;;;3.62;;
36253;SDS011;22291;52.250;21.228;2023-05-29T20:08:05;7.70;;;3.67;;
36253;SDS011;22291;52.250;21.228;2023-05-29T20:10:31;9.73;;;4.03;;
36253;SDS011;22291;52.250;21.228;2023-05-29T20:12:58;14.70;;;7.75;;
36253;SDS011;22291;52.250;21.228;2023-05-29T20:15:24;11.10;;;4.70;;
36253;SDS011;22291;52.250;21.228;2023-05-29T20:17:51;7.53;;;4.03;;
36253;SDS011;22291;52.250;21.228;2023-05-29T20:20:17;10.80;;;4.45;;
36253;SDS011;22291;52.250;21.228;2023-05-29T20:22:45;9.93;;;4.22;;
36253;SDS011;22291;52.250;21.228;2023-05-29T20:25:12;7.05;;;4.10;;
36253;SDS011;22291;52.250;21.228;2023-05-29T20:27:38;13.38;;;4.22;;
36253;SDS011;22291;52.250;21.228;2023-05-29T20:30:06;7.55;;;3.35;;
36253;SDS011;22291;52.250;21.228;2023-05-29T20:32:34;6.50;;;4.30;;
36253;SDS011;22291;52.250;21.228;2023-05-29T20:35:03;8.95;;;3.80;;
36253;SDS011;22291;52.250;21.228;2023-05-29T20:37:31;6.70;;;3.65;;
36253;SDS011;22291;52.250;21.228;2023-05-29T20:39:59;6.03;;;3.30;;
36253;SDS011;22291;52.250;21.228;2023-05-29T20:42:28;7.28;;;3.95;;
36253;SDS011;22291;52.250;21.228;2023-05-29T20:44:56;21.02;;;14.90;;
36253;SDS011;22291;52.250;21.228;2023-05-29T20:47:22;39.18;;;25.57;;
36253;SDS011;22291;52.250;21.228;2023-05-29T20:49:48;21.52;;;13.03;;
36253;SDS011;22291;52.250;21.228;2023-05-29T20:52:14;11.00;;;4.97;;